Summary for MDHALE1

Southwest Baltimore Co., Halethorpe, MD 21227
Join the PWSweather.com Network
View data in metric units
Latest Conditions
Updated 10:45:03 PM EST Wednesday, Dec 17, 2014
Data Currently Today's Max Today's Min Today's Average
Temperature 36.8°F2.7°C 53.6°F12.0°C 35.8°F2.1°C 43.0°F6.1°C
Dew Point 25.8°F-3.4°C 41.0°F5.0°C 24.5°F-4.2°C 33.2°F0.7°C
Winds Calm Calm 12.7 mph NW20.4 kmh NW CalmCalm 2.6 mph4.2 kmh
Wind Gusts -- 19.6 mph31.5 kmh -- 4.9 mph7.9 kmh
Humidity 64% 94% 42% 70%
Pressure 30.02 in1016.6 mb 30.05 in1017.6 mb 29.87 in1011.5 mb 29.95 in1014.2 mb
Precipitation 0.00 in0.0 mm - - 0.00 in0.0 mm
Trends
 
Station Profile
Southwest Baltimore Co.Halethorpe, MD 21227

Lat: 39.236, Lon: -76.697
Elevation: 86
Station Type: Davis Vantage Pro2+

http://home.comcast.net/~halethorpe_weather/index.html

Detailed Summary for Wed, Dec 17, 2014
Hour (EST) Temperature Dew Point Humidity Winds Wind Gusts Pressure Precip Precip Rate Daily Precip Total
10:45 PM 36.8°F2.7°C 25.8°F-3.4°C 64% Calm Calm -- 30.02 in1016.6 mb 0.00 in0.0 mm 0.00 in/hr0.0 mm/hr 0.00 in0.0 mm
10:30 PM 35.8°F2.1°C 25.5°F-3.6°C 66% Calm Calm -- 30.02 in1016.6 mb 0.00 in0.0 mm 0.00 in/hr0.0 mm/hr 0.00 in0.0 mm
10:15 PM 36.1°F2.3°C 25.1°F-3.8°C 64% Calm Calm -- 30.03 in1016.9 mb 0.00 in0.0 mm 0.00 in/hr0.0 mm/hr 0.00 in0.0 mm
10:00 PM 36.6°F2.6°C 25.2°F-3.8°C 63% Calm Calm 1.2 mph1.9 kmh 30.03 in1016.9 mb 0.00 in0.0 mm 0.00 in/hr0.0 mm/hr 0.00 in0.0 mm
09:45 PM 36.6°F2.6°C 25.5°F-3.6°C 64% Calm Calm -- 30.03 in1016.9 mb 0.00 in0.0 mm 0.00 in/hr0.0 mm/hr 0.00 in0.0 mm
09:30 PM 37.9°F3.3°C 24.8°F-4.0°C 59% Calm Calm -- 30.05 in1017.6 mb 0.00 in0.0 mm 0.00 in/hr0.0 mm/hr 0.00 in0.0 mm
09:15 PM 37.8°F3.2°C 24.7°F-4.1°C 59% 1.2 mph WNW1.9 kmh WNW 3.5 mph5.6 kmh 30.04 in1017.3 mb 0.00 in0.0 mm 0.00 in/hr0.0 mm/hr 0.00 in0.0 mm
09:00 PM 38.0°F3.3°C 24.5°F-4.2°C 58% 2.3 mph WNW3.7 kmh WNW 4.6 mph7.4 kmh 30.04 in1017.3 mb 0.00 in0.0 mm 0.00 in/hr0.0 mm/hr 0.00 in0.0 mm
08:45 PM 38.1°F3.4°C 25.0°F-3.9°C 59% 1.2 mph NW1.9 kmh NW 10.4 mph16.7 kmh 30.04 in1017.3 mb 0.00 in0.0 mm 0.00 in/hr0.0 mm/hr 0.00 in0.0 mm
08:30 PM 38.4°F3.6°C 25.3°F-3.7°C 59% Calm Calm 1.2 mph1.9 kmh 30.04 in1017.3 mb 0.00 in0.0 mm 0.00 in/hr0.0 mm/hr 0.00 in0.0 mm
08:15 PM 39.2°F4.0°C 24.9°F-3.9°C 56% 1.2 mph NW1.9 kmh NW 4.6 mph7.4 kmh 30.04 in1017.3 mb 0.00 in0.0 mm 0.00 in/hr0.0 mm/hr 0.00 in0.0 mm
08:00 PM 39.4°F4.1°C 25.4°F-3.7°C 57% 4.6 mph NW7.4 kmh NW 6.9 mph11.1 kmh 30.04 in1017.3 mb 0.00 in0.0 mm 0.00 in/hr0.0 mm/hr 0.00 in0.0 mm
07:45 PM 40.1°F4.5°C 25.7°F-3.5°C 56% 1.2 mph NNW1.9 kmh NNW 3.5 mph5.6 kmh 30.03 in1016.9 mb 0.00 in0.0 mm 0.00 in/hr0.0 mm/hr 0.00 in0.0 mm
07:30 PM 40.2°F4.6°C 26.2°F-3.2°C 57% 2.3 mph W3.7 kmh W 6.9 mph11.1 kmh 30.02 in1016.6 mb 0.00 in0.0 mm 0.00 in/hr0.0 mm/hr 0.00 in0.0 mm
07:15 PM 40.3°F4.6°C 26.7°F-2.9°C 58% Calm Calm -- 30.02 in1016.6 mb 0.00 in0.0 mm 0.00 in/hr0.0 mm/hr 0.00 in0.0 mm
07:00 PM 41.4°F5.2°C 26.4°F-3.1°C 55% Calm Calm -- 30.01 in1016.3 mb 0.00 in0.0 mm 0.00 in/hr0.0 mm/hr 0.00 in0.0 mm
06:45 PM 42.0°F5.6°C 26.6°F-3.0°C 54% 1.2 mph NW1.9 kmh NW 3.5 mph5.6 kmh 30.01 in1016.3 mb 0.00 in0.0 mm 0.00 in/hr0.0 mm/hr 0.00 in0.0 mm
06:30 PM 42.4°F5.8°C 26.9°F-2.8°C 54% 2.3 mph NW3.7 kmh NW 3.5 mph5.6 kmh 30.01 in1016.3 mb 0.00 in0.0 mm 0.00 in/hr0.0 mm/hr 0.00 in0.0 mm
06:15 PM 42.7°F5.9°C 27.2°F-2.7°C 54% 4.6 mph NW7.4 kmh NW 5.8 mph9.3 kmh 30.00 in1015.9 mb 0.00 in0.0 mm 0.00 in/hr0.0 mm/hr 0.00 in0.0 mm
06:00 PM 42.9°F6.1°C 26.9°F-2.8°C 53% 2.3 mph NW3.7 kmh NW 6.9 mph11.1 kmh 30.00 in1015.9 mb 0.00 in0.0 mm 0.00 in/hr0.0 mm/hr 0.00 in0.0 mm
05:45 PM 43.2°F6.2°C 27.2°F-2.7°C 53% 2.3 mph WNW3.7 kmh WNW 3.5 mph5.6 kmh 29.99 in1015.6 mb 0.00 in0.0 mm 0.00 in/hr0.0 mm/hr 0.00 in0.0 mm
05:30 PM 43.9°F6.6°C 27.9°F-2.3°C 53% Calm Calm 3.5 mph5.6 kmh 29.99 in1015.6 mb 0.00 in0.0 mm 0.00 in/hr0.0 mm/hr 0.00 in0.0 mm
05:15 PM 44.6°F7.0°C 28.0°F-2.2°C 52% 2.3 mph NW3.7 kmh NW 4.6 mph7.4 kmh 29.98 in1015.2 mb 0.00 in0.0 mm 0.00 in/hr0.0 mm/hr 0.00 in0.0 mm
05:00 PM 45.1°F7.3°C 28.0°F-2.2°C 51% 6.9 mph NW11.1 kmh NW 6.9 mph11.1 kmh 29.98 in1015.2 mb 0.00 in0.0 mm 0.00 in/hr0.0 mm/hr 0.00 in0.0 mm
04:45 PM 45.7°F7.6°C 29.1°F-1.6°C 52% 3.5 mph NW5.6 kmh NW 8.1 mph13.0 kmh 29.97 in1014.9 mb 0.00 in0.0 mm 0.00 in/hr0.0 mm/hr 0.00 in0.0 mm
04:30 PM 46.5°F8.1°C 28.9°F-1.7°C 50% 5.8 mph NW9.3 kmh NW 5.8 mph9.3 kmh 29.97 in1014.9 mb 0.00 in0.0 mm 0.00 in/hr0.0 mm/hr 0.00 in0.0 mm
04:15 PM 46.9°F8.3°C 29.2°F-1.6°C 50% Calm Calm 3.5 mph5.6 kmh 29.97 in1014.9 mb 0.00 in0.0 mm 0.00 in/hr0.0 mm/hr 0.00 in0.0 mm
04:00 PM 47.5°F8.6°C 29.3°F-1.5°C 49% 5.8 mph NW9.3 kmh NW 11.5 mph18.5 kmh 29.96 in1014.6 mb 0.00 in0.0 mm 0.00 in/hr0.0 mm/hr 0.00 in0.0 mm
03:45 PM 48.3°F9.1°C 28.9°F-1.7°C 47% 2.3 mph NW3.7 kmh NW 3.5 mph5.6 kmh 29.96 in1014.6 mb 0.00 in0.0 mm 0.00 in/hr0.0 mm/hr 0.00 in0.0 mm
03:30 PM 49.3°F9.6°C 29.9°F-1.2°C 47% 1.2 mph WNW1.9 kmh WNW 3.5 mph5.6 kmh 29.96 in1014.6 mb 0.00 in0.0 mm 0.00 in/hr0.0 mm/hr 0.00 in0.0 mm
03:15 PM 49.5°F9.7°C 30.6°F-0.8°C 48% 8.1 mph NW13.0 kmh NW 11.5 mph18.5 kmh 29.96 in1014.6 mb 0.00 in0.0 mm 0.00 in/hr0.0 mm/hr 0.00 in0.0 mm
03:00 PM 50.7°F10.4°C 29.5°F-1.4°C 44% 5.8 mph W9.3 kmh W 6.9 mph11.1 kmh 29.95 in1014.2 mb 0.00 in0.0 mm 0.00 in/hr0.0 mm/hr 0.00 in0.0 mm
02:45 PM 51.0°F10.6°C 28.7°F-1.8°C 42% 9.2 mph NW14.8 kmh NW 10.4 mph16.7 kmh 29.95 in1014.2 mb 0.00 in0.0 mm 0.00 in/hr0.0 mm/hr 0.00 in0.0 mm
02:30 PM 51.2°F10.7°C 30.0°F-1.1°C 44% 4.6 mph WNW7.4 kmh WNW 6.9 mph11.1 kmh 29.95 in1014.2 mb 0.00 in0.0 mm 0.00 in/hr0.0 mm/hr 0.00 in0.0 mm
02:15 PM 51.5°F10.8°C 31.4°F-0.3°C 46% 8.1 mph W13.0 kmh W 6.9 mph11.1 kmh 29.94 in1013.9 mb 0.00 in0.0 mm 0.00 in/hr0.0 mm/hr 0.00 in0.0 mm
02:00 PM 51.5°F10.8°C 31.9°F-0.1°C 47% 10.4 mph W16.7 kmh W 15.0 mph24.1 kmh 29.94 in1013.9 mb 0.00 in0.0 mm 0.00 in/hr0.0 mm/hr 0.00 in0.0 mm
01:45 PM 51.6°F10.9°C 32.0°F0.0°C 47% 8.1 mph NW13.0 kmh NW 17.3 mph27.8 kmh 29.93 in1013.5 mb 0.00 in0.0 mm 0.00 in/hr0.0 mm/hr 0.00 in0.0 mm
01:30 PM 51.9°F11.1°C 32.8°F0.4°C 48% 12.7 mph NW20.4 kmh NW 15.0 mph24.1 kmh 29.94 in1013.9 mb 0.00 in0.0 mm 0.00 in/hr0.0 mm/hr 0.00 in0.0 mm
01:15 PM 51.2°F10.7°C 32.7°F0.4°C 49% 10.4 mph NW16.7 kmh NW 15.0 mph24.1 kmh 29.94 in1013.9 mb 0.00 in0.0 mm 0.00 in/hr0.0 mm/hr 0.00 in0.0 mm
01:00 PM 50.6°F10.3°C 33.6°F0.9°C 52% 8.1 mph WSW13.0 kmh WSW 19.6 mph31.5 kmh 29.94 in1013.9 mb 0.00 in0.0 mm 0.00 in/hr0.0 mm/hr 0.00 in0.0 mm
12:45 PM 51.4°F10.8°C 34.8°F1.6°C 53% 6.9 mph NW11.1 kmh NW 10.4 mph16.7 kmh 29.94 in1013.9 mb 0.00 in0.0 mm 0.00 in/hr0.0 mm/hr 0.00 in0.0 mm
12:30 PM 51.7°F10.9°C 35.6°F2.0°C 54% 5.8 mph N9.3 kmh N 5.8 mph9.3 kmh 29.94 in1013.9 mb 0.00 in0.0 mm 0.00 in/hr0.0 mm/hr 0.00 in0.0 mm
12:15 PM 52.9°F11.6°C 35.7°F2.1°C 52% 3.5 mph NW5.6 kmh NW 8.1 mph13.0 kmh 29.94 in1013.9 mb 0.00 in0.0 mm 0.00 in/hr0.0 mm/hr 0.00 in0.0 mm
12:00 PM 53.0°F11.7°C 36.8°F2.7°C 54% 5.8 mph NW9.3 kmh NW 16.1 mph25.9 kmh 29.94 in1013.9 mb 0.00 in0.0 mm 0.00 in/hr0.0 mm/hr 0.00 in0.0 mm
11:45 AM 53.6°F12.0°C 37.3°F2.9°C 54% 3.5 mph NW5.6 kmh NW 13.8 mph22.2 kmh 29.94 in1013.9 mb 0.00 in0.0 mm 0.00 in/hr0.0 mm/hr 0.00 in0.0 mm
11:30 AM 52.5°F11.4°C 38.1°F3.4°C 58% 6.9 mph WNW11.1 kmh WNW 13.8 mph22.2 kmh 29.95 in1014.2 mb 0.00 in0.0 mm 0.00 in/hr0.0 mm/hr 0.00 in0.0 mm
11:15 AM 52.3°F11.3°C 37.9°F3.3°C 58% 9.2 mph W14.8 kmh W 12.7 mph20.4 kmh 29.95 in1014.2 mb 0.00 in0.0 mm 0.00 in/hr0.0 mm/hr 0.00 in0.0 mm
11:00 AM 52.1°F11.2°C 39.5°F4.2°C 62% 5.8 mph WSW9.3 kmh WSW 5.8 mph9.3 kmh 29.96 in1014.6 mb 0.00 in0.0 mm 0.00 in/hr0.0 mm/hr 0.00 in0.0 mm
10:45 AM 51.5°F10.8°C 39.3°F4.1°C 63% 5.8 mph W9.3 kmh W 8.1 mph13.0 kmh 29.96 in1014.6 mb 0.00 in0.0 mm 0.00 in/hr0.0 mm/hr 0.00 in0.0 mm
10:30 AM 50.8°F10.4°C 39.4°F4.1°C 65% 8.1 mph WNW13.0 kmh WNW 15.0 mph24.1 kmh 29.97 in1014.9 mb 0.00 in0.0 mm 0.00 in/hr0.0 mm/hr 0.00 in0.0 mm
10:15 AM 50.2°F10.1°C 40.4°F4.7°C 69% 4.6 mph NW7.4 kmh NW 10.4 mph16.7 kmh 29.97 in1014.9 mb 0.00 in0.0 mm 0.00 in/hr0.0 mm/hr 0.00 in0.0 mm
10:00 AM 49.3°F9.6°C 40.3°F4.6°C 71% 3.5 mph WSW5.6 kmh WSW 10.4 mph16.7 kmh 29.97 in1014.9 mb 0.00 in0.0 mm 0.00 in/hr0.0 mm/hr 0.00 in0.0 mm
09:45 AM 48.5°F9.2°C 40.3°F4.6°C 73% Calm Calm 2.3 mph3.7 kmh 29.97 in1014.9 mb 0.00 in0.0 mm 0.00 in/hr0.0 mm/hr 0.00 in0.0 mm
09:30 AM 47.4°F8.6°C 40.2°F4.6°C 76% 1.2 mph WSW1.9 kmh WSW 5.8 mph9.3 kmh 29.96 in1014.6 mb 0.00 in0.0 mm 0.00 in/hr0.0 mm/hr 0.00 in0.0 mm
09:15 AM 45.7°F7.6°C 40.2°F4.6°C 81% 5.8 mph W9.3 kmh W 11.5 mph18.5 kmh 29.96 in1014.6 mb 0.00 in0.0 mm 0.00 in/hr0.0 mm/hr 0.00 in0.0 mm
09:00 AM 43.3°F6.3°C 39.7°F4.3°C 87% Calm Calm 1.2 mph1.9 kmh 29.96 in1014.6 mb 0.00 in0.0 mm 0.00 in/hr0.0 mm/hr 0.00 in0.0 mm
08:45 AM 40.7°F4.8°C 38.6°F3.7°C 92% Calm Calm 3.5 mph5.6 kmh 29.96 in1014.6 mb 0.00 in0.0 mm 0.00 in/hr0.0 mm/hr 0.00 in0.0 mm
08:30 AM 38.5°F3.6°C 36.9°F2.7°C 94% 2.3 mph SSW3.7 kmh SSW 5.8 mph9.3 kmh 29.95 in1014.2 mb 0.00 in0.0 mm 0.00 in/hr0.0 mm/hr 0.00 in0.0 mm
08:15 AM 37.7°F3.2°C 35.9°F2.2°C 93% 2.3 mph SW3.7 kmh SW 4.6 mph7.4 kmh 29.95 in1014.2 mb 0.00 in0.0 mm 0.00 in/hr0.0 mm/hr 0.00 in0.0 mm
08:00 AM 37.0°F2.8°C 35.2°F1.8°C 93% Calm Calm 3.5 mph5.6 kmh 29.94 in1013.9 mb 0.00 in0.0 mm 0.00 in/hr0.0 mm/hr 0.00 in0.0 mm
07:45 AM 36.9°F2.7°C 35.1°F1.7°C 93% Calm Calm -- 29.94 in1013.9 mb 0.00 in0.0 mm 0.00 in/hr0.0 mm/hr 0.00 in0.0 mm
07:30 AM 36.6°F2.6°C 34.8°F1.6°C 93% 2.3 mph WSW3.7 kmh WSW 4.6 mph7.4 kmh 29.94 in1013.9 mb 0.00 in0.0 mm 0.00 in/hr0.0 mm/hr 0.00 in0.0 mm
07:15 AM 36.0°F2.2°C 34.1°F1.2°C 93% 2.3 mph WSW3.7 kmh WSW 3.5 mph5.6 kmh 29.93 in1013.5 mb 0.00 in0.0 mm 0.00 in/hr0.0 mm/hr 0.00 in0.0 mm
07:00 AM 35.8°F2.1°C 33.7°F0.9°C 92% 1.2 mph WSW1.9 kmh WSW 1.2 mph1.9 kmh 29.92 in1013.2 mb 0.00 in0.0 mm 0.00 in/hr0.0 mm/hr 0.00 in0.0 mm
06:45 AM 36.5°F2.5°C 34.4°F1.3°C 92% Calm Calm -- 29.92 in1013.2 mb 0.00 in0.0 mm 0.00 in/hr0.0 mm/hr 0.00 in0.0 mm
06:30 AM 37.2°F2.9°C 35.3°F1.8°C 93% Calm Calm -- 29.92 in1013.2 mb 0.00 in0.0 mm 0.00 in/hr0.0 mm/hr 0.00 in0.0 mm
06:15 AM 37.4°F3.0°C 35.6°F2.0°C 93% 2.3 mph W3.7 kmh W 4.6 mph7.4 kmh 29.91 in1012.9 mb 0.00 in0.0 mm 0.00 in/hr0.0 mm/hr 0.00 in0.0 mm
06:00 AM 36.3°F2.4°C 34.5°F1.4°C 93% Calm Calm 3.5 mph5.6 kmh 29.91 in1012.9 mb 0.00 in0.0 mm 0.00 in/hr0.0 mm/hr 0.00 in0.0 mm
05:45 AM 36.3°F2.4°C 34.2°F1.2°C 92% Calm Calm -- 29.91 in1012.9 mb 0.00 in0.0 mm 0.00 in/hr0.0 mm/hr 0.00 in0.0 mm
05:30 AM 36.6°F2.6°C 34.2°F1.2°C 91% Calm Calm -- 29.90 in1012.5 mb 0.00 in0.0 mm 0.00 in/hr0.0 mm/hr 0.00 in0.0 mm
05:15 AM 37.2°F2.9°C 35.1°F1.7°C 92% Calm Calm -- 29.90 in1012.5 mb 0.00 in0.0 mm 0.00 in/hr0.0 mm/hr 0.00 in0.0 mm
05:00 AM 37.7°F3.2°C 35.6°F2.0°C 92% Calm Calm -- 29.90 in1012.5 mb 0.00 in0.0 mm 0.00 in/hr0.0 mm/hr 0.00 in0.0 mm
04:45 AM 38.1°F3.4°C 36.0°F2.2°C 92% Calm Calm -- 29.90 in1012.5 mb 0.00 in0.0 mm 0.00 in/hr0.0 mm/hr 0.00 in0.0 mm
04:30 AM 37.7°F3.2°C 35.6°F2.0°C 92% 1.2 mph W1.9 kmh W 3.5 mph5.6 kmh 29.90 in1012.5 mb 0.00 in0.0 mm 0.00 in/hr0.0 mm/hr 0.00 in0.0 mm
04:15 AM 38.2°F3.4°C 35.8°F2.1°C 91% Calm Calm -- 29.89 in1012.2 mb 0.00 in0.0 mm 0.00 in/hr0.0 mm/hr 0.00 in0.0 mm
04:00 AM 38.6°F3.7°C 36.5°F2.5°C 92% Calm Calm -- 29.90 in1012.5 mb 0.00 in0.0 mm 0.00 in/hr0.0 mm/hr 0.00 in0.0 mm
03:45 AM 38.7°F3.7°C 36.6°F2.6°C 92% Calm Calm 1.2 mph1.9 kmh 29.90 in1012.5 mb 0.00 in0.0 mm 0.00 in/hr0.0 mm/hr 0.00 in0.0 mm
03:30 AM 38.9°F3.8°C 36.8°F2.7°C 92% Calm Calm 2.3 mph3.7 kmh 29.89 in1012.2 mb 0.00 in0.0 mm 0.00 in/hr0.0 mm/hr 0.00 in0.0 mm
03:15 AM 38.5°F3.6°C 36.4°F2.4°C 92% Calm Calm -- 29.89 in1012.2 mb 0.00 in0.0 mm 0.00 in/hr0.0 mm/hr 0.00 in0.0 mm
03:00 AM 38.8°F3.8°C 36.4°F2.4°C 91% Calm Calm -- 29.89 in1012.2 mb 0.00 in0.0 mm 0.00 in/hr0.0 mm/hr 0.00 in0.0 mm
02:45 AM 39.1°F3.9°C 37.0°F2.8°C 92% Calm Calm -- 29.89 in1012.2 mb 0.00 in0.0 mm 0.00 in/hr0.0 mm/hr 0.00 in0.0 mm
02:30 AM 39.5°F4.2°C 37.0°F2.8°C 91% Calm Calm -- 29.89 in1012.2 mb 0.00 in0.0 mm 0.00 in/hr0.0 mm/hr 0.00 in0.0 mm
02:15 AM 39.8°F4.3°C 37.4°F3.0°C 91% Calm Calm -- 29.89 in1012.2 mb 0.00 in0.0 mm 0.00 in/hr0.0 mm/hr 0.00 in0.0 mm
02:00 AM 40.4°F4.7°C 38.0°F3.3°C 91% Calm Calm -- 29.88 in1011.9 mb 0.00 in0.0 mm 0.00 in/hr0.0 mm/hr 0.00 in0.0 mm
01:45 AM 40.8°F4.9°C 38.4°F3.6°C 91% Calm Calm -- 29.88 in1011.9 mb 0.00 in0.0 mm 0.00 in/hr0.0 mm/hr 0.00 in0.0 mm
01:30 AM 41.3°F5.2°C 38.6°F3.7°C 90% Calm Calm -- 29.88 in1011.9 mb 0.00 in0.0 mm 0.00 in/hr0.0 mm/hr 0.00 in0.0 mm
01:15 AM 42.1°F5.6°C 39.4°F4.1°C 90% Calm Calm -- 29.87 in1011.5 mb 0.00 in0.0 mm 0.00 in/hr0.0 mm/hr 0.00 in0.0 mm
01:00 AM 42.4°F5.8°C 39.7°F4.3°C 90% Calm Calm -- 29.87 in1011.5 mb 0.00 in0.0 mm 0.00 in/hr0.0 mm/hr 0.00 in0.0 mm
12:45 AM 42.7°F5.9°C 40.2°F4.6°C 91% 4.6 mph WNW7.4 kmh WNW 8.1 mph13.0 kmh 29.87 in1011.5 mb 0.00 in0.0 mm 0.00 in/hr0.0 mm/hr 0.00 in0.0 mm
12:30 AM 43.0°F6.1°C 40.5°F4.7°C 91% 2.3 mph WNW3.7 kmh WNW 4.6 mph7.4 kmh 29.87 in1011.5 mb 0.00 in0.0 mm 0.00 in/hr0.0 mm/hr 0.00 in0.0 mm
12:15 AM 43.2°F6.2°C 40.8°F4.9°C 91% 2.3 mph WSW3.7 kmh WSW 2.3 mph3.7 kmh 29.88 in1011.9 mb 0.00 in0.0 mm 0.00 in/hr0.0 mm/hr 0.00 in0.0 mm
12:01 AM 43.5°F6.4°C 41.0°F5.0°C 91% 2.3 mph WSW3.7 kmh WSW 5.8 mph9.3 kmh 29.88 in1011.9 mb 0.00 in0.0 mm 0.00 in/hr0.0 mm/hr 0.00 in0.0 mm
WeatherForYou.com, LLC is not responsible for any damages or problems caused by this service. Current weather conditions are obtained from the closest station including government and personal stations which may have varying degrees of accuracy. Weather forecasts are derived from the NOAA NDFD and obtained through HAMweather's Aeris Weather API. Like all things, this site belongs to Jesus Christ... He just trusts me to maintain it. If you have any questions or comments email webmaster@weatherforyou.com

Copyright © 2014, WeatherForYou.com LLC. All rights reserved.